Time;durP1;ratioP1;P1;durP2;ratioP2;P2;SDS_P1;SDS_P2;PMS_P1;PMS_P2;Temp;Humidity;BMP_temperature;BMP_pressure;BME280_temperature;BME280_humidity;BME280_pressure;Samples;Min_cycle;Max_cycle;Signal;HPM_P1;HPM_P2
2022/11/21 00:01:21;;;;;;;5.70;2.03;;;;;;;;;;5055539;28;20041;-73
2022/11/21 00:03:47;;;;;;;10.10;1.83;;;;;;;;;;5053765;28;20033;-73
2022/11/21 00:06:14;;;;;;;13.18;3.55;;;;;;;;;;5054588;28;20044;-73
2022/11/21 00:08:40;;;;;;;9.15;2.10;;;;;;;;;;5055364;28;20044;-73
2022/11/21 00:11:06;;;;;;;42.50;12.98;;;;;;;;;;5054848;28;20492;-73
2022/11/21 00:13:33;;;;;;;52.15;20.80;;;;;;;;;;5054971;28;20037;-73
2022/11/21 00:16:03;;;;;;;15.05;3.67;;;;;;;;;;5055401;28;20028;-73
2022/11/21 00:18:29;;;;;;;22.67;6.57;;;;;;;;;;5054840;28;20043;-73
2022/11/21 00:20:55;;;;;;;8.80;2.53;;;;;;;;;;5055163;28;20420;-73
2022/11/21 00:23:21;;;;;;;13.90;2.53;;;;;;;;;;5055243;28;20090;-73
2022/11/21 00:25:47;;;;;;;9.77;2.53;;;;;;;;;;5053137;28;20126;-73
2022/11/21 00:28:13;;;;;;;30.40;10.15;;;;;;;;;;5055046;28;20480;-73
2022/11/21 00:30:39;;;;;;;20.85;7.10;;;;;;;;;;5055064;28;20106;-73
2022/11/21 00:33:06;;;;;;;9.43;2.53;;;;;;;;;;5055325;28;20037;-73
2022/11/21 00:35:32;;;;;;;11.60;2.72;;;;;;;;;;5054586;28;20126;-73
2022/11/21 00:37:58;;;;;;;13.80;4.85;;;;;;;;;;5054874;28;20037;-73
2022/11/21 00:40:24;;;;;;;119.93;87.28;;;;;;;;;;5054789;28;20048;-73
2022/11/21 00:42:50;;;;;;;24.13;8.77;;;;;;;;;;5055078;28;20136;-73
2022/11/21 00:45:16;;;;;;;12.65;3.92;;;;;;;;;;5054422;28;20464;-73
2022/11/21 00:47:42;;;;;;;19.92;9.48;;;;;;;;;;5054943;28;20484;-73
2022/11/21 00:50:09;;;;;;;13.52;5.13;;;;;;;;;;5054816;28;20487;-73
2022/11/21 00:52:35;;;;;;;22.88;8.00;;;;;;;;;;5054338;28;20041;-73
2022/11/21 00:55:01;;;;;;;14.38;2.83;;;;;;;;;;5054445;28;20033;-73
2022/11/21 00:57:27;;;;;;;15.75;3.42;;;;;;;;;;5054583;28;20102;-73
2022/11/21 00:59:53;;;;;;;12.27;3.50;;;;;;;;;;5054722;28;20045;-73
2022/11/21 01:02:20;;;;;;;15.43;4.35;;;;;;;;;;5054788;28;20041;-73
2022/11/21 01:04:46;;;;;;;12.80;4.15;;;;;;;;;;5054745;28;20132;-73
2022/11/21 01:07:15;;;;;;;6.68;2.15;;;;;;;;;;5054130;28;20040;-73
2022/11/21 01:09:41;;;;;;;10.43;3.50;;;;;;;;;;5054611;28;20049;-73
2022/11/21 01:12:07;;;;;;;15.20;3.22;;;;;;;;;;5054232;28;20041;-73
2022/11/21 01:14:33;;;;;;;10.32;2.78;;;;;;;;;;5054354;28;20045;-73
2022/11/21 01:16:59;;;;;;;8.40;2.40;;;;;;;;;;5054362;28;20099;-73
2022/11/21 01:19:25;;;;;;;11.80;2.40;;;;;;;;;;5054381;28;20045;-73
2022/11/21 01:21:51;;;;;;;11.02;2.35;;;;;;;;;;5054060;28;20063;-73
2022/11/21 01:24:17;;;;;;;13.35;2.88;;;;;;;;;;5053984;28;20041;-73
2022/11/21 01:26:43;;;;;;;10.95;2.33;;;;;;;;;;5054024;28;20048;-73
2022/11/21 01:29:10;;;;;;;13.30;4.00;;;;;;;;;;5053962;28;20045;-73
2022/11/21 01:31:36;;;;;;;16.50;5.72;;;;;;;;;;5054471;28;20040;-73
2022/11/21 01:34:02;;;;;;;31.85;14.60;;;;;;;;;;5054162;28;20033;-73
2022/11/21 01:36:31;;;;;;;22.17;7.68;;;;;;;;;;5054460;28;20194;-73
2022/11/21 01:38:58;;;;;;;20.17;6.03;;;;;;;;;;5053981;28;20048;-73
2022/11/21 01:41:35;;;;;;;21.73;6.97;;;;;;;;;;5054125;28;20047;-73
2022/11/21 01:44:10;;;;;;;18.08;4.07;;;;;;;;;;5054589;28;20041;-73
2022/11/21 01:46:36;;;;;;;9.48;3.20;;;;;;;;;;5057075;28;20123;-73
2022/11/21 01:49:07;;;;;;;9.52;3.10;;;;;;;;;;5058497;28;20045;-73
2022/11/21 01:51:37;;;;;;;22.67;8.68;;;;;;;;;;5057951;28;20059;-73
2022/11/21 01:54:24;;;;;;;15.70;7.17;;;;;;;;;;5057985;28;20040;-73
2022/11/21 01:56:58;;;;;;;16.52;5.93;;;;;;;;;;5057535;28;20306;-73
2022/11/21 01:59:30;;;;;;;13.07;4.95;;;;;;;;;;5057969;28;20053;-73
2022/11/21 02:01:57;;;;;;;13.70;4.32;;;;;;;;;;5057751;28;20037;-73
2022/11/21 02:04:26;;;;;;;12.90;4.10;;;;;;;;;;5057389;28;20045;-73
2022/11/21 02:06:52;;;;;;;15.35;4.07;;;;;;;;;;5057865;28;20037;-73
2022/11/21 02:09:18;;;;;;;7.60;2.90;;;;;;;;;;5057470;28;20064;-73
2022/11/21 02:11:48;;;;;;;13.00;5.55;;;;;;;;;;5057483;28;20484;-73
2022/11/21 02:14:15;;;;;;;9.85;2.90;;;;;;;;;;5057510;28;20037;-73
2022/11/21 02:16:41;;;;;;;12.45;4.03;;;;;;;;;;5057504;28;20124;-73
2022/11/21 02:19:13;;;;;;;15.75;3.55;;;;;;;;;;5057681;28;20130;-73
2022/11/21 02:21:47;;;;;;;14.23;3.47;;;;;;;;;;5057514;28;20084;-73
2022/11/21 02:24:16;;;;;;;9.55;2.85;;;;;;;;;;5057261;28;20048;-73
2022/11/21 02:26:44;;;;;;;14.27;3.28;;;;;;;;;;5056726;28;20064;-73
2022/11/21 02:29:10;;;;;;;14.80;5.45;;;;;;;;;;5057496;28;20048;-73
2022/11/21 02:31:36;;;;;;;20.15;4.40;;;;;;;;;;5056889;28;20036;-73
2022/11/21 02:34:02;;;;;;;17.25;4.07;;;;;;;;;;5057600;28;20051;-73
2022/11/21 02:36:45;;;;;;;13.23;4.82;;;;;;;;;;5057282;28;20037;-73
2022/11/21 02:39:15;;;;;;;14.05;3.40;;;;;;;;;;5056980;28;20073;-73
2022/11/21 02:41:55;;;;;;;13.30;3.30;;;;;;;;;;5057007;28;20072;-73
2022/11/21 02:44:28;;;;;;;15.57;3.90;;;;;;;;;;5056977;28;20060;-73
2022/11/21 02:46:54;;;;;;;15.10;3.67;;;;;;;;;;5057050;28;20076;-73
2022/11/21 02:49:24;;;;;;;10.27;2.72;;;;;;;;;;5057025;28;20068;-72
2022/11/21 02:51:50;;;;;;;9.65;2.75;;;;;;;;;;5056837;28;20519;-73
2022/11/21 02:54:16;;;;;;;11.13;2.80;;;;;;;;;;5056858;28;20033;-73
2022/11/21 02:56:42;;;;;;;16.13;6.07;;;;;;;;;;5056525;28;20048;-73
2022/11/21 02:59:08;;;;;;;11.77;3.33;;;;;;;;;;5056808;28;20091;-73
2022/11/21 03:01:34;;;;;;;12.63;3.45;;;;;;;;;;5056337;28;20048;-73
2022/11/21 03:04:00;;;;;;;9.60;2.45;;;;;;;;;;5057029;28;20037;-73
2022/11/21 03:06:27;;;;;;;13.63;2.72;;;;;;;;;;5056553;28;20041;-73
2022/11/21 03:08:53;;;;;;;11.75;2.92;;;;;;;;;;5056757;28;20040;-73
2022/11/21 03:11:19;;;;;;;11.02;3.75;;;;;;;;;;5056320;28;20041;-73
2022/11/21 03:13:45;;;;;;;11.85;4.03;;;;;;;;;;5056383;28;20037;-73
2022/11/21 03:16:11;;;;;;;10.15;2.80;;;;;;;;;;5056369;28;20037;-73
2022/11/21 03:18:37;;;;;;;12.38;2.90;;;;;;;;;;5056511;28;20041;-73
2022/11/21 03:21:03;;;;;;;12.05;3.17;;;;;;;;;;5056845;28;20048;-73
2022/11/21 03:23:29;;;;;;;10.63;2.63;;;;;;;;;;5056221;28;20124;-73
2022/11/21 03:25:55;;;;;;;15.80;3.47;;;;;;;;;;5055713;28;20087;-73
2022/11/21 03:28:21;;;;;;;11.00;2.55;;;;;;;;;;5055829;28;20453;-73
2022/11/21 03:30:47;;;;;;;12.13;3.92;;;;;;;;;;5056162;28;20041;-73
2022/11/21 03:33:14;;;;;;;21.75;3.70;;;;;;;;;;5056045;28;20139;-73
2022/11/21 03:35:40;;;;;;;11.07;3.10;;;;;;;;;;5055971;28;20037;-73
2022/11/21 03:38:06;;;;;;;9.43;3.00;;;;;;;;;;5056504;28;20099;-73
2022/11/21 03:40:32;;;;;;;8.95;2.53;;;;;;;;;;5055793;28;20052;-73
2022/11/21 03:43:02;;;;;;;7.85;2.65;;;;;;;;;;5055554;28;20045;-73
2022/11/21 03:45:28;;;;;;;16.63;3.25;;;;;;;;;;5055906;28;20086;-73
2022/11/21 03:47:55;;;;;;;11.68;2.90;;;;;;;;;;5055447;28;20488;-73
2022/11/21 03:50:21;;;;;;;12.68;3.25;;;;;;;;;;5055870;28;20055;-73
2022/11/21 03:52:47;;;;;;;14.48;2.65;;;;;;;;;;5055679;28;20041;-73
2022/11/21 03:55:14;;;;;;;12.45;2.53;;;;;;;;;;5055438;28;20480;-73
2022/11/21 03:57:40;;;;;;;12.18;2.83;;;;;;;;;;5055284;28;20114;-73
2022/11/21 04:00:06;;;;;;;11.75;3.88;;;;;;;;;;5055372;28;20045;-73
2022/11/21 04:02:32;;;;;;;11.43;3.40;;;;;;;;;;5055865;28;20088;-73
2022/11/21 04:04:58;;;;;;;12.00;3.00;;;;;;;;;;5055507;28;20041;-73
2022/11/21 04:07:25;;;;;;;12.35;4.00;;;;;;;;;;5055109;28;20037;-73
2022/11/21 04:09:51;;;;;;;15.82;4.07;;;;;;;;;;5054362;28;20071;-73
2022/11/21 04:12:17;;;;;;;12.52;3.40;;;;;;;;;;5055302;28;20041;-73
2022/11/21 04:14:43;;;;;;;10.70;3.17;;;;;;;;;;5055218;28;20033;-73
2022/11/21 04:17:09;;;;;;;13.10;3.40;;;;;;;;;;5055227;28;20072;-73
2022/11/21 04:19:35;;;;;;;11.65;3.13;;;;;;;;;;5055599;28;20041;-73
2022/11/21 04:22:01;;;;;;;12.95;2.33;;;;;;;;;;5055424;28;20051;-73
2022/11/21 04:24:27;;;;;;;13.40;3.28;;;;;;;;;;5054890;28;20040;-73
2022/11/21 04:26:54;;;;;;;9.50;3.03;;;;;;;;;;5055154;28;20045;-73
2022/11/21 04:29:20;;;;;;;11.25;2.85;;;;;;;;;;5054971;28;20118;-73
2022/11/21 04:31:46;;;;;;;11.57;3.20;;;;;;;;;;5055788;28;20132;-73
2022/11/21 04:34:12;;;;;;;12.35;2.83;;;;;;;;;;5055411;28;20584;-73
2022/11/21 04:36:39;;;;;;;12.60;2.92;;;;;;;;;;5055173;28;20064;-72
2022/11/21 04:39:05;;;;;;;13.38;2.85;;;;;;;;;;5055517;28;20044;-73
2022/11/21 04:41:31;;;;;;;10.88;2.97;;;;;;;;;;5054664;28;20493;-73
2022/11/21 04:43:57;;;;;;;12.60;2.33;;;;;;;;;;5054979;28;20112;-73
2022/11/21 04:46:23;;;;;;;7.78;1.88;;;;;;;;;;5054717;28;20033;-73
2022/11/21 04:48:49;;;;;;;8.55;2.45;;;;;;;;;;5054457;28;20048;-73
2022/11/21 04:51:15;;;;;;;9.63;2.88;;;;;;;;;;5054920;28;20041;-73
2022/11/21 04:53:41;;;;;;;15.38;3.10;;;;;;;;;;5054628;28;20484;-73
2022/11/21 04:56:08;;;;;;;9.70;2.78;;;;;;;;;;5054407;28;20040;-73
2022/11/21 04:58:34;;;;;;;13.43;3.17;;;;;;;;;;5054728;28;20068;-73
2022/11/21 05:01:07;;;;;;;12.48;3.50;;;;;;;;;;5054746;28;20044;-73
2022/11/21 05:03:33;;;;;;;14.57;4.30;;;;;;;;;;5054702;28;20076;-73
2022/11/21 05:05:59;;;;;;;13.13;3.90;;;;;;;;;;5054484;28;20036;-73
2022/11/21 05:08:25;;;;;;;13.93;3.78;;;;;;;;;;5054699;28;20045;-73
2022/11/21 05:13:37;;;;;;;9.48;2.85;;;;;;;;;;5054140;28;20044;-73
2022/11/21 05:16:03;;;;;;;14.98;3.28;;;;;;;;;;5054959;28;20036;-73
2022/11/21 05:18:30;;;;;;;12.65;3.00;;;;;;;;;;5054613;28;20198;-73
2022/11/21 05:20:56;;;;;;;16.20;2.90;;;;;;;;;;5055655;28;20049;-73
2022/11/21 05:23:22;;;;;;;13.27;2.65;;;;;;;;;;5058727;28;20041;-73
2022/11/21 05:25:48;;;;;;;8.13;2.65;;;;;;;;;;5058184;28;20067;-73
2022/11/21 05:28:14;;;;;;;9.60;3.17;;;;;;;;;;5058384;28;20044;-73
2022/11/21 05:30:40;;;;;;;11.15;2.90;;;;;;;;;;5057848;28;20110;-73
2022/11/21 05:33:06;;;;;;;12.00;3.13;;;;;;;;;;5058557;28;20036;-73
2022/11/21 05:35:32;;;;;;;11.07;2.47;;;;;;;;;;5057913;28;20370;-73
2022/11/21 05:37:59;;;;;;;9.18;2.63;;;;;;;;;;5058221;28;20037;-73
2022/11/21 05:40:25;;;;;;;10.23;2.47;;;;;;;;;;5057778;28;20045;-73
2022/11/21 05:45:36;;;;;;;7.85;2.65;;;;;;;;;;5057563;28;20561;-73
2022/11/21 05:48:06;;;;;;;13.25;2.63;;;;;;;;;;5058268;28;20075;-73
2022/11/21 05:50:33;;;;;;;13.00;4.90;;;;;;;;;;5057645;28;20492;-73
2022/11/21 05:53:03;;;;;;;16.92;6.95;;;;;;;;;;5057799;28;20508;-73
2022/11/21 05:55:29;;;;;;;15.32;6.03;;;;;;;;;;5057652;28;20041;-73
2022/11/21 05:57:58;;;;;;;13.60;4.85;;;;;;;;;;5070101;28;20123;-73
2022/11/21 06:00:24;;;;;;;12.23;3.78;;;;;;;;;;5077805;28;20055;-73
2022/11/21 06:05:35;;;;;;;17.25;4.45;;;;;;;;;;5077189;28;20410;-73
2022/11/21 06:08:01;;;;;;;14.07;4.10;;;;;;;;;;5077544;28;20036;-73
2022/11/21 06:10:27;;;;;;;8.00;3.67;;;;;;;;;;5077481;28;20056;-73
2022/11/21 06:12:54;;;;;;;9.45;3.08;;;;;;;;;;5077461;28;20040;-74
2022/11/21 06:15:20;;;;;;;13.65;3.05;;;;;;;;;;5077157;28;20123;-74
2022/11/21 06:17:46;;;;;;;11.45;2.78;;;;;;;;;;5077423;28;20059;-73
2022/11/21 06:20:12;;;;;;;13.38;4.03;;;;;;;;;;5077442;28;20123;-74
2022/11/21 06:22:38;;;;;;;14.15;3.20;;;;;;;;;;5072362;28;20055;-73
2022/11/21 06:25:04;;;;;;;12.07;3.05;;;;;;;;;;5054889;28;20061;-74
2022/11/21 06:27:30;;;;;;;11.63;3.25;;;;;;;;;;5053318;28;20045;-74
2022/11/21 06:29:56;;;;;;;8.77;4.22;;;;;;;;;;5055639;28;20060;-73
2022/11/21 06:32:23;;;;;;;11.90;4.70;;;;;;;;;;5055995;28;20033;-75
2022/11/21 06:34:49;;;;;;;14.50;3.80;;;;;;;;;;5052940;28;20044;-75
2022/11/21 06:37:15;;;;;;;9.68;3.88;;;;;;;;;;5055169;28;20496;-75
2022/11/21 06:39:41;;;;;;;22.05;8.10;;;;;;;;;;5055724;28;20053;-75
2022/11/21 06:42:07;;;;;;;14.45;4.60;;;;;;;;;;5055479;28;20094;-75
2022/11/21 06:44:33;;;;;;;14.88;4.20;;;;;;;;;;5056001;28;20048;-75
2022/11/21 06:46:59;;;;;;;12.60;2.90;;;;;;;;;;5055942;28;20041;-75
2022/11/21 06:49:25;;;;;;;12.38;3.17;;;;;;;;;;5055708;28;20044;-75
2022/11/21 06:51:51;;;;;;;13.45;3.38;;;;;;;;;;5055831;28;20069;-75
2022/11/21 06:54:18;;;;;;;9.18;2.97;;;;;;;;;;5055981;28;20163;-75
2022/11/21 06:56:44;;;;;;;11.23;3.30;;;;;;;;;;5055848;28;20048;-75
2022/11/21 06:59:10;;;;;;;16.08;4.47;;;;;;;;;;5056709;28;20089;-76
2022/11/21 07:01:36;;;;;;;20.20;4.82;;;;;;;;;;5056327;28;20488;-76
2022/11/21 07:04:02;;;;;;;14.05;5.35;;;;;;;;;;5056834;28;20044;-77
2022/11/21 07:06:28;;;;;;;13.30;4.95;;;;;;;;;;5055035;28;20515;-75
2022/11/21 07:08:54;;;;;;;10.65;3.78;;;;;;;;;;5056001;28;20120;-75
2022/11/21 07:11:20;;;;;;;13.45;4.60;;;;;;;;;;5055541;28;20036;-74
2022/11/21 07:13:47;;;;;;;10.10;4.07;;;;;;;;;;5056230;28;20083;-74
2022/11/21 07:16:13;;;;;;;11.52;4.70;;;;;;;;;;5056083;28;20064;-74
2022/11/21 07:18:40;;;;;;;10.70;4.35;;;;;;;;;;5055447;28;20044;-74
2022/11/21 07:21:06;;;;;;;9.43;3.88;;;;;;;;;;5055177;28;20128;-74
2022/11/21 07:23:33;;;;;;;16.15;5.20;;;;;;;;;;5055754;28;20045;-74
2022/11/21 07:26:00;;;;;;;12.40;4.40;;;;;;;;;;5063202;28;20052;-74
2022/11/21 07:28:27;;;;;;;13.10;4.03;;;;;;;;;;5076150;28;20036;-74
2022/11/21 07:30:56;;;;;;;11.95;4.03;;;;;;;;;;5076198;28;20055;-74
2022/11/21 07:33:22;;;;;;;17.75;4.45;;;;;;;;;;5076922;28;20036;-74
2022/11/21 07:35:48;;;;;;;12.18;4.13;;;;;;;;;;5076344;28;20075;-76
2022/11/21 07:38:14;;;;;;;14.98;3.97;;;;;;;;;;5050970;28;20045;-77
2022/11/21 07:40:40;;;;;;;14.27;4.07;;;;;;;;;;5051567;28;20049;-74
2022/11/21 07:43:07;;;;;;;11.45;4.22;;;;;;;;;;5054678;28;20127;-74
2022/11/21 07:45:33;;;;;;;9.13;2.90;;;;;;;;;;5055903;28;20041;-74
2022/11/21 07:48:00;;;;;;;14.13;5.05;;;;;;;;;;5055789;28;20099;-74
2022/11/21 07:50:27;;;;;;;27.83;17.92;;;;;;;;;;5055278;28;20056;-74
2022/11/21 07:53:03;;;;;;;13.45;5.72;;;;;;;;;;5055932;28;20032;-74
2022/11/21 07:55:29;;;;;;;16.13;6.03;;;;;;;;;;5055554;28;20067;-74
2022/11/21 07:57:59;;;;;;;14.35;6.38;;;;;;;;;;5054168;28;20067;-73
2022/11/21 08:00:26;;;;;;;18.73;8.27;;;;;;;;;;5054218;28;20041;-74
2022/11/21 08:02:52;;;;;;;21.80;11.80;;;;;;;;;;5054983;28;20045;-74
2022/11/21 08:05:18;;;;;;;20.13;10.52;;;;;;;;;;5054619;28;20041;-74
2022/11/21 08:07:45;;;;;;;23.55;9.50;;;;;;;;;;5053488;28;20044;-74
2022/11/21 08:10:11;;;;;;;31.70;11.88;;;;;;;;;;5050841;28;20099;-73
2022/11/21 08:12:37;;;;;;;40.70;18.80;;;;;;;;;;5054173;28;20068;-74
2022/11/21 08:15:03;;;;;;;30.67;11.73;;;;;;;;;;5054900;28;20047;-74
2022/11/21 08:17:30;;;;;;;12.50;6.53;;;;;;;;;;5055218;28;20044;-74
2022/11/21 08:19:57;;;;;;;19.10;8.13;;;;;;;;;;5055225;28;20566;-74
2022/11/21 08:22:23;;;;;;;17.05;6.55;;;;;;;;;;5053785;28;20128;-74
2022/11/21 08:24:50;;;;;;;15.88;6.53;;;;;;;;;;5054713;28;20056;-74
2022/11/21 08:27:19;;;;;;;14.13;6.30;;;;;;;;;;5053973;28;20118;-74
2022/11/21 08:29:45;;;;;;;18.65;7.45;;;;;;;;;;5046598;28;20576;-74
2022/11/21 08:32:13;;;;;;;18.77;6.60;;;;;;;;;;5052676;28;20527;-74
2022/11/21 08:34:39;;;;;;;14.52;5.15;;;;;;;;;;5054741;28;20029;-74
2022/11/21 08:37:05;;;;;;;13.15;3.83;;;;;;;;;;5053849;28;20040;-74
2022/11/21 08:39:31;;;;;;;17.15;4.25;;;;;;;;;;5053723;28;20045;-74
2022/11/21 08:42:04;;;;;;;10.65;3.63;;;;;;;;;;5053137;28;20045;-74
2022/11/21 08:44:30;;;;;;;15.00;3.60;;;;;;;;;;5054127;28;20037;-74
2022/11/21 08:46:57;;;;;;;13.38;3.13;;;;;;;;;;5054535;28;20072;-74
2022/11/21 08:49:23;;;;;;;11.85;4.07;;;;;;;;;;5053601;28;20102;-74
2022/11/21 08:51:50;;;;;;;11.82;3.78;;;;;;;;;;5052659;28;20060;-74
2022/11/21 08:54:17;;;;;;;15.38;4.25;;;;;;;;;;5053989;28;20033;-74
2022/11/21 08:56:43;;;;;;;9.48;2.42;;;;;;;;;;5053557;28;20036;-74
2022/11/21 08:59:09;;;;;;;20.23;4.45;;;;;;;;;;5050449;28;20516;-74
2022/11/21 09:01:36;;;;;;;16.67;4.38;;;;;;;;;;5054058;28;20172;-74
2022/11/21 09:04:02;;;;;;;10.52;3.65;;;;;;;;;;5053611;28;20032;-74
2022/11/21 09:06:28;;;;;;;9.40;3.47;;;;;;;;;;5049993;28;20041;-74
2022/11/21 09:08:54;;;;;;;10.93;3.20;;;;;;;;;;5053440;28;20119;-74
2022/11/21 09:11:20;;;;;;;12.23;3.35;;;;;;;;;;5054642;28;20109;-74
2022/11/21 09:18:01;;;;;;;9.27;2.67;;;;;;;;;;5068579;28;20119;-74
2022/11/21 09:19:14;;;;;;;14.02;3.28;;;;;;;;;;5053564;28;20055;-74
2022/11/21 09:21:40;;;;;;;12.52;3.45;;;;;;;;;;5054476;28;20041;-74
2022/11/21 09:24:06;;;;;;;7.75;2.97;;;;;;;;;;5053870;28;20111;-74
2022/11/21 09:26:33;;;;;;;11.48;3.78;;;;;;;;;;5053001;28;20068;-74
2022/11/21 09:28:59;;;;;;;15.40;4.97;;;;;;;;;;5053927;28;20040;-74
2022/11/21 09:31:25;;;;;;;10.63;4.20;;;;;;;;;;5050888;28;20041;-74
2022/11/21 09:33:51;;;;;;;14.85;3.97;;;;;;;;;;5053407;28;20116;-74
2022/11/21 09:36:17;;;;;;;12.05;3.97;;;;;;;;;;5067532;28;20503;-74
2022/11/21 09:38:43;;;;;;;11.00;3.33;;;;;;;;;;5074211;28;20105;-74
2022/11/21 09:44:04;;;;;;;9.45;2.72;;;;;;;;;;5053604;28;20044;-73
2022/11/21 09:46:34;;;;;;;8.57;2.92;;;;;;;;;;5048747;28;20101;-73
2022/11/21 09:49:04;;;;;;;10.45;2.65;;;;;;;;;;5053199;28;20044;-73
2022/11/21 09:51:30;;;;;;;8.55;3.25;;;;;;;;;;5052506;28;20044;-74
2022/11/21 09:54:03;;;;;;;12.13;3.10;;;;;;;;;;5052863;28;20495;-73
2022/11/21 09:56:31;;;;;;;9.98;3.45;;;;;;;;;;5053118;28;20098;-74
2022/11/21 09:59:15;;;;;;;13.07;3.47;;;;;;;;;;5049783;28;20041;-74
2022/11/21 10:01:41;;;;;;;10.05;2.97;;;;;;;;;;5052862;28;20041;-73
2022/11/21 10:04:07;;;;;;;14.90;6.75;;;;;;;;;;5053275;28;20044;-74
2022/11/21 10:06:56;;;;;;;14.25;3.60;;;;;;;;;;5054212;28;20114;-73
2022/11/21 10:09:41;;;;;;;13.02;3.25;;;;;;;;;;5057000;28;20079;-73
2022/11/21 10:15:22;;;;;;;11.90;4.03;;;;;;;;;;5057057;28;20067;-73
2022/11/21 10:17:48;;;;;;;9.57;3.88;;;;;;;;;;5051617;28;20202;-74
2022/11/21 10:20:14;;;;;;;11.38;3.95;;;;;;;;;;5060451;28;20538;-74
2022/11/21 10:22:50;;;;;;;14.25;3.53;;;;;;;;;;5056842;28;20044;-74
2022/11/21 10:25:27;;;;;;;10.45;3.88;;;;;;;;;;5052291;28;20056;-74
2022/11/21 10:28:00;;;;;;;7.32;3.00;;;;;;;;;;5037674;28;20072;-74
2022/11/21 10:30:26;;;;;;;15.18;5.40;;;;;;;;;;5037752;28;20049;-74
2022/11/21 10:32:56;;;;;;;15.30;5.22;;;;;;;;;;5037679;28;20123;-74
2022/11/21 10:35:23;;;;;;;13.98;4.85;;;;;;;;;;5037235;28;20038;-74
2022/11/21 10:37:53;;;;;;;17.45;7.22;;;;;;;;;;5057716;28;20492;-74
2022/11/21 10:40:37;;;;;;;16.65;5.30;;;;;;;;;;5056312;28;20045;-74
2022/11/21 10:45:52;;;;;;;12.05;5.50;;;;;;;;;;5050273;28;20156;-74
2022/11/21 10:48:18;;;;;;;19.30;6.82;;;;;;;;;;5056277;28;20044;-74
2022/11/21 10:51:17;;;;;;;13.82;4.10;;;;;;;;;;5057282;28;20505;-74
2022/11/21 10:56:36;;;;;;;14.18;4.70;;;;;;;;;;5055156;28;20044;-74
2022/11/21 10:59:11;;;;;;;12.55;5.43;;;;;;;;;;5056730;28;20045;-74
2022/11/21 11:01:38;;;;;;;8.98;2.72;;;;;;;;;;5056128;28;20170;-74
2022/11/21 11:04:05;;;;;;;16.55;10.40;;;;;;;;;;5056008;28;20036;-73
2022/11/21 11:06:32;;;;;;;11.68;3.88;;;;;;;;;;5055952;28;20119;-74
2022/11/21 11:08:58;;;;;;;16.00;3.55;;;;;;;;;;5048239;28;20056;-74
2022/11/21 11:11:25;;;;;;;13.20;5.47;;;;;;;;;;5053103;28;20057;-73
2022/11/21 11:14:01;;;;;;;15.32;8.27;;;;;;;;;;5055167;28;20037;-74
2022/11/21 11:16:28;;;;;;;9.98;3.25;;;;;;;;;;5055249;28;20047;-74
2022/11/21 11:19:02;;;;;;;20.10;11.27;;;;;;;;;;5054739;28;20041;-74
2022/11/21 11:21:29;;;;;;;10.40;3.58;;;;;;;;;;5054835;28;20072;-74
2022/11/21 11:24:06;;;;;;;21.95;6.72;;;;;;;;;;5035518;28;20041;-74
2022/11/21 11:26:32;;;;;;;19.35;6.18;;;;;;;;;;5053572;28;20622;-74
2022/11/21 11:29:08;;;;;;;33.95;8.65;;;;;;;;;;5055531;28;20581;-74
2022/11/21 11:31:44;;;;;;;19.05;6.00;;;;;;;;;;5055570;28;20033;-74
2022/11/21 11:34:14;;;;;;;20.27;5.32;;;;;;;;;;5053589;28;20064;-74
2022/11/21 11:36:44;;;;;;;8.98;2.80;;;;;;;;;;5054481;28;20052;-74
2022/11/21 11:39:22;;;;;;;15.77;3.40;;;;;;;;;;5054454;28;20041;-74
2022/11/21 11:47:31;;;;;;;8.98;2.53;;;;;;;;;;5047735;28;20064;-73
2022/11/21 11:50:11;;;;;;;13.85;3.25;;;;;;;;;;5053464;28;20439;-73
2022/11/21 11:53:00;;;;;;;9.77;2.17;;;;;;;;;;5053616;28;20040;-73
2022/11/21 11:55:45;;;;;;;8.75;2.13;;;;;;;;;;5050853;28;20511;-73
2022/11/21 11:58:29;;;;;;;7.88;2.75;;;;;;;;;;5051952;28;20039;-73
2022/11/21 12:00:55;;;;;;;8.85;1.58;;;;;;;;;;5053955;28;20132;-73
2022/11/21 12:03:23;;;;;;;9.55;2.03;;;;;;;;;;5055036;28;20036;-74
2022/11/21 12:06:03;;;;;;;21.73;9.27;;;;;;;;;;5050853;28;20374;-73
2022/11/21 12:08:40;;;;;;;13.27;5.45;;;;;;;;;;5054103;28;20124;-73
2022/11/21 12:14:11;;;;;;;13.88;4.40;;;;;;;;;;5049431;28;20551;-73
2022/11/21 12:16:39;;;;;;;26.05;11.85;;;;;;;;;;5053472;28;20500;-73
2022/11/21 12:19:10;;;;;;;33.00;17.42;;;;;;;;;;5053361;28;20041;-73
2022/11/21 12:21:36;;;;;;;12.35;5.00;;;;;;;;;;5052711;28;20068;-74
2022/11/21 12:24:03;;;;;;;14.68;4.05;;;;;;;;;;5053169;28;20040;-74
2022/11/21 12:26:48;;;;;;;10.13;4.05;;;;;;;;;;5052622;28;20130;-74
2022/11/21 12:29:19;;;;;;;11.68;3.85;;;;;;;;;;5052614;28;20040;-73
2022/11/21 12:32:00;;;;;;;9.52;5.65;;;;;;;;;;5053383;28;20091;-73
2022/11/21 12:34:26;;;;;;;;;;;;;;;;;;5052481;28;20123;-73
2022/11/21 12:36:55;;;;;;;9.02;2.80;;;;;;;;;;5053435;28;20008;-74
2022/11/21 12:39:41;;;;;;;9.20;2.40;;;;;;;;;;5052874;28;20139;-74
2022/11/21 12:45:23;;;;;;;8.32;2.22;;;;;;;;;;5052162;28;20040;-73
2022/11/21 12:56:26;;;;;;;11.50;5.65;;;;;;;;;;5045593;28;20059;-74
2022/11/21 12:58:53;;;;;;;21.67;9.52;;;;;;;;;;5053093;28;20076;-74
2022/11/21 13:01:23;;;;;;;14.20;8.35;;;;;;;;;;5053704;28;20041;-73
2022/11/21 13:03:58;;;;;;;19.40;8.25;;;;;;;;;;5052629;28;20045;-73
2022/11/21 13:06:26;;;;;;;20.30;10.88;;;;;;;;;;5052207;28;20044;-73
2022/11/21 13:08:53;;;;;;;13.48;6.47;;;;;;;;;;5054252;28;21744;-73
2022/11/21 13:14:09;;;;;;;16.65;8.48;;;;;;;;;;5053251;28;20087;-73
2022/11/21 13:16:36;;;;;;;13.75;6.43;;;;;;;;;;5052415;28;20036;-73
2022/11/21 13:19:23;;;;;;;11.48;6.25;;;;;;;;;;5037933;28;20048;-73
2022/11/21 13:21:53;;;;;;;14.55;6.65;;;;;;;;;;5046770;28;20043;-73
2022/11/21 13:24:38;;;;;;;16.25;6.70;;;;;;;;;;5051800;28;20071;-74
2022/11/21 13:27:07;;;;;;;14.27;6.78;;;;;;;;;;5051671;28;20061;-74
2022/11/21 13:29:33;;;;;;;15.00;7.18;;;;;;;;;;5053300;28;20041;-74
2022/11/21 13:32:19;;;;;;;16.25;8.30;;;;;;;;;;5052736;28;20044;-74
2022/11/21 13:34:45;;;;;;;20.20;10.25;;;;;;;;;;5051595;28;20045;-74
2022/11/21 13:37:31;;;;;;;11.77;5.60;;;;;;;;;;5053408;28;20491;-74
2022/11/21 13:40:17;;;;;;;13.30;6.78;;;;;;;;;;5053670;28;20056;-74
2022/11/21 13:43:02;;;;;;;13.45;7.82;;;;;;;;;;5037975;28;20053;-74
2022/11/21 13:45:42;;;;;;;16.63;9.32;;;;;;;;;;5057552;28;20045;-74
2022/11/21 13:48:27;;;;;;;17.25;8.20;;;;;;;;;;5074131;28;20072;-73
2022/11/21 13:50:53;;;;;;;15.00;8.00;;;;;;;;;;5056316;28;20051;-74
2022/11/21 13:53:28;;;;;;;14.50;6.65;;;;;;;;;;5057457;28;20040;-74
2022/11/21 13:56:20;;;;;;;11.52;6.03;;;;;;;;;;5056924;28;20044;-74
2022/11/21 13:58:46;;;;;;;16.40;6.75;;;;;;;;;;5049590;28;20518;-74
2022/11/21 14:01:34;;;;;;;16.13;7.28;;;;;;;;;;5056225;28;20041;-73
2022/11/21 14:04:08;;;;;;;12.13;6.38;;;;;;;;;;5055278;28;20049;-74
2022/11/21 14:06:41;;;;;;;14.35;6.47;;;;;;;;;;5057168;28;20040;-74
2022/11/21 14:09:20;;;;;;;13.32;6.22;;;;;;;;;;5058156;28;20043;-74
2022/11/21 14:12:00;;;;;;;25.35;15.48;;;;;;;;;;5056844;28;20037;-74
2022/11/21 14:14:32;;;;;;;10.57;5.95;;;;;;;;;;5056371;28;20036;-74
2022/11/21 14:17:01;;;;;;;16.30;7.13;;;;;;;;;;5057563;28;20037;-73
2022/11/21 14:19:30;;;;;;;12.02;7.45;;;;;;;;;;5056556;28;20102;-74
2022/11/21 14:21:56;;;;;;;14.07;7.00;;;;;;;;;;5056920;28;20111;-74
2022/11/21 14:24:22;;;;;;;10.73;5.38;;;;;;;;;;5057342;28;20049;-73
2022/11/21 14:26:49;;;;;;;12.50;6.70;;;;;;;;;;5057562;28;20053;-73
2022/11/21 14:29:26;;;;;;;14.50;8.35;;;;;;;;;;5056199;28;20037;-73
2022/11/21 14:31:52;;;;;;;13.13;7.07;;;;;;;;;;5043043;28;20044;-76
2022/11/21 14:34:26;;;;;;;11.02;6.63;;;;;;;;;;5056973;28;20504;-75
2022/11/21 14:36:52;;;;;;;12.20;6.38;;;;;;;;;;5057970;28;20033;-74
2022/11/21 14:39:19;;;;;;;10.20;6.60;;;;;;;;;;5056838;28;20076;-74
2022/11/21 14:41:49;;;;;;;13.90;7.28;;;;;;;;;;5056959;28;20085;-74
2022/11/21 14:44:17;;;;;;;12.80;6.55;;;;;;;;;;5056658;28;20045;-76
2022/11/21 14:46:44;;;;;;;18.75;11.48;;;;;;;;;;5056989;28;20029;-74
2022/11/21 14:49:16;;;;;;;16.02;10.73;;;;;;;;;;5056838;28;20102;-74
2022/11/21 14:52:05;;;;;;;16.38;8.20;;;;;;;;;;5057373;28;20044;-74
2022/11/21 14:54:39;;;;;;;11.15;5.55;;;;;;;;;;5053399;28;20056;-74
2022/11/21 14:57:17;;;;;;;12.43;3.30;;;;;;;;;;5056749;28;20111;-74
2022/11/21 14:59:43;;;;;;;5.88;2.42;;;;;;;;;;5056771;28;20053;-74
2022/11/21 15:02:14;;;;;;;3.63;2.08;;;;;;;;;;5056900;28;20174;-74
2022/11/21 15:04:42;;;;;;;9.30;4.43;;;;;;;;;;5056994;28;20097;-74
2022/11/21 15:07:28;;;;;;;8.40;4.43;;;;;;;;;;5056591;28;20060;-74
2022/11/21 15:09:54;;;;;;;23.33;9.15;;;;;;;;;;5056350;28;20053;-74
2022/11/21 15:12:24;;;;;;;10.45;4.53;;;;;;;;;;5056553;28;20530;-74
2022/11/21 15:14:53;;;;;;;16.35;5.65;;;;;;;;;;5056478;28;20041;-74
2022/11/21 15:17:21;;;;;;;10.10;3.55;;;;;;;;;;5056404;28;20067;-74
2022/11/21 15:20:01;;;;;;;51.67;20.15;;;;;;;;;;5056660;28;20080;-74
2022/11/21 15:22:33;;;;;;;9.05;4.43;;;;;;;;;;5056819;28;20045;-74
2022/11/21 15:25:14;;;;;;;19.02;12.55;;;;;;;;;;5055788;28;20040;-75
2022/11/21 15:27:40;;;;;;;;;;;;;;;;;;5057660;28;20113;-74